< < Back
Terminal Aerodrome Forecast


Current Version              Previous Versions:   1  2  3  4  5  6  7  8  9  

Terminal Aerodrome Forecast

094
FTUS42 KTAE 210600 AAA
TAFVLD
TAF AMD
KVLD 210635Z 2107/2206 04005KT P6SM VCSH OVC006
     FM211900 07006KT 6SM -RA OVC012
     FM220100 08005KT 4SM RA OVC007=

Latest METAR

131
SAUS70 KWBC 220400 RRJ
MTRVLD
METAR KVLD 220353Z AUTO 09004KT 5SM BR OVC003 12/11 A3006 RMK AO2
RAB02E20 SLP188 P0000 T01170111 TSNO


USA.gov is the U.S. government's official web portal to all federal, state and local government web resources and services.